createdAt,value
2019-06-26T00:01:05.231Z,10.47
2019-06-26T00:06:07.739Z,11.63
2019-06-26T00:11:10.261Z,9.33
2019-06-26T00:16:12.841Z,10.60
2019-06-26T00:21:15.325Z,10.43
2019-06-26T00:26:17.839Z,10.00
2019-06-26T00:31:21.396Z,10.00
2019-06-26T00:36:23.908Z,11.47
2019-06-26T00:41:26.343Z,11.43
2019-06-26T00:46:28.874Z,11.00
2019-06-26T00:51:31.391Z,10.20
2019-06-26T00:56:34.134Z,9.97
2019-06-26T01:01:36.676Z,10.10
2019-06-26T01:06:44.907Z,10.20
2019-06-26T01:11:47.632Z,10.73
2019-06-26T01:16:50.083Z,12.17
2019-06-26T01:21:52.524Z,11.57
2019-06-26T01:26:55.224Z,11.60
2019-06-26T01:31:57.808Z,9.87
2019-06-26T01:37:00.953Z,11.63
2019-06-26T01:42:03.754Z,10.83
2019-06-26T01:47:07.903Z,11.80
2019-06-26T01:52:10.404Z,10.57
2019-06-26T01:57:12.884Z,9.33
2019-06-26T02:02:15.345Z,10.53
2019-06-26T02:07:17.815Z,11.00
2019-06-26T02:12:20.318Z,11.93
2019-06-26T02:17:22.755Z,9.40
2019-06-26T02:22:25.207Z,10.27
2019-06-26T02:27:27.699Z,11.20
2019-06-26T02:32:30.349Z,10.80
2019-06-26T02:37:32.916Z,12.43
2019-06-26T02:42:35.368Z,11.63
2019-06-26T02:47:37.918Z,11.83
2019-06-26T02:52:40.365Z,10.63
2019-06-26T02:57:42.780Z,11.07
2019-06-26T03:02:45.371Z,11.37
2019-06-26T03:07:48.613Z,11.93
2019-06-26T03:12:51.185Z,12.40
2019-06-26T03:17:55.709Z,12.23
2019-06-26T03:22:58.182Z,11.53
2019-06-26T03:28:00.957Z,12.07
2019-06-26T03:33:03.408Z,12.50
2019-06-26T03:38:06.508Z,13.90
2019-06-26T03:43:09.014Z,11.40
2019-06-26T03:48:12.214Z,11.57
2019-06-26T03:53:14.729Z,12.70
2019-06-26T03:58:18.291Z,13.50
2019-06-26T04:03:20.965Z,11.60
2019-06-26T04:08:24.218Z,14.13
2019-06-26T04:13:26.743Z,11.70
2019-06-26T04:18:29.336Z,11.73
2019-06-26T04:23:32.051Z,13.20
2019-06-26T04:28:34.622Z,12.20
2019-06-26T04:33:37.199Z,10.63
2019-06-26T04:38:40.257Z,11.13
2019-06-26T04:43:42.705Z,10.90
2019-06-26T04:48:46.537Z,11.23
2019-06-26T04:53:49.056Z,9.87
2019-06-26T04:58:51.560Z,9.67
2019-06-26T05:03:54.238Z,9.73
2019-06-26T05:08:57.297Z,10.33
2019-06-26T05:13:59.762Z,10.00
2019-06-26T05:19:03.349Z,10.20
2019-06-26T05:24:06.724Z,10.30
2019-06-26T05:29:09.145Z,10.77
2019-06-26T05:34:11.607Z,9.70
2019-06-26T05:39:14.024Z,10.93
2019-06-26T05:44:17.239Z,11.40
2019-06-26T05:49:20.107Z,13.30
2019-06-26T05:54:22.466Z,9.50
2019-06-26T05:59:24.957Z,8.83
2019-06-26T06:04:27.516Z,8.45
2019-06-26T06:09:30.053Z,8.73
2019-06-26T06:14:32.867Z,9.25
2019-06-26T06:19:35.447Z,9.30
2019-06-26T06:24:37.796Z,9.80
2019-06-26T06:29:40.250Z,9.63
2019-06-26T06:34:42.615Z,9.53
2019-06-26T06:39:45.137Z,10.00
2019-06-26T06:44:47.644Z,9.35
2019-06-26T06:49:50.025Z,9.28
2019-06-26T06:54:52.923Z,10.35
2019-06-26T06:59:55.316Z,9.45
2019-06-26T07:04:57.947Z,10.38
2019-06-26T07:10:00.763Z,10.55
2019-06-26T07:15:04.452Z,9.83
2019-06-26T07:20:07.940Z,9.50
2019-06-26T07:25:10.345Z,9.80
2019-06-26T07:30:13.374Z,9.88
2019-06-26T07:35:16.163Z,9.28
2019-06-26T07:40:18.714Z,9.48
2019-06-26T07:45:24.035Z,9.65
2019-06-26T07:50:25.546Z,9.68
2019-06-26T07:55:28.016Z,9.13
2019-06-26T08:00:31.786Z,9.03
2019-06-26T08:05:34.713Z,8.73
2019-06-26T08:10:37.147Z,9.28
2019-06-26T08:15:39.627Z,9.23
2019-06-26T08:20:55.451Z,8.85
2019-06-26T08:25:46.476Z,8.78
2019-06-26T08:30:48.862Z,8.43
2019-06-26T08:35:51.424Z,7.97
2019-06-26T08:40:53.982Z,8.50
2019-06-26T08:45:56.452Z,7.75
2019-06-26T08:50:59.132Z,7.50
2019-06-26T08:56:02.222Z,7.30
2019-06-26T09:01:05.042Z,5.95
2019-06-26T09:06:07.735Z,7.62
2019-06-26T09:11:10.198Z,6.42
2019-06-26T09:16:12.719Z,6.85
2019-06-26T09:21:15.354Z,7.35
2019-06-26T09:26:17.981Z,7.12
2019-06-26T09:31:20.593Z,7.35
2019-06-26T09:36:23.443Z,6.53
2019-06-26T09:41:25.995Z,5.65
2019-06-26T09:46:30.205Z,6.40
2019-06-26T09:51:32.585Z,5.83
2019-06-26T09:56:35.094Z,6.20
2019-06-26T10:01:39.541Z,5.85
2019-06-26T10:06:42.240Z,5.25
2019-06-26T10:11:44.595Z,8.03
2019-06-26T10:16:47.046Z,5.78
2019-06-26T10:21:49.428Z,5.85
2019-06-26T10:26:52.068Z,5.60
2019-06-26T10:31:54.685Z,9.58
2019-06-26T10:36:57.903Z,5.33
2019-06-26T10:42:00.324Z,6.17
2019-06-26T10:47:03.043Z,7.72
2019-06-26T10:52:05.995Z,5.75
2019-06-26T10:57:09.446Z,6.35
2019-06-26T11:02:11.789Z,5.65
2019-06-26T11:07:14.483Z,8.20
2019-06-26T11:12:16.896Z,5.95
2019-06-26T11:17:19.359Z,5.87
2019-06-26T11:22:22.077Z,6.87
2019-06-26T11:27:24.468Z,6.20
2019-06-26T11:32:26.976Z,7.15
2019-06-26T11:37:29.398Z,7.08
2019-06-26T11:42:32.818Z,6.17
2019-06-26T11:47:35.688Z,6.97
2019-06-26T11:52:38.080Z,6.17
2019-06-26T11:57:40.458Z,6.58
2019-06-26T12:02:42.783Z,6.67
2019-06-26T12:07:45.362Z,6.55
2019-06-26T12:12:48.083Z,5.70
2019-06-26T12:17:50.513Z,6.20
2019-06-26T12:22:52.980Z,6.95
2019-06-26T12:27:56.806Z,6.00
2019-06-26T12:33:03.407Z,6.95
2019-06-26T12:38:03.613Z,6.97
2019-06-26T12:43:06.303Z,5.90
2019-06-26T12:48:08.747Z,7.08
2019-06-26T12:53:11.227Z,5.45
2019-06-26T12:58:19.245Z,5.20
2019-06-26T13:03:17.983Z,4.80
2019-06-26T13:08:20.396Z,5.80
2019-06-26T13:13:22.840Z,4.90
2019-06-26T13:18:26.278Z,6.47
2019-06-26T13:23:28.674Z,6.00
2019-06-26T13:28:31.142Z,4.37
2019-06-26T13:33:33.486Z,4.22
2019-06-26T13:38:36.266Z,3.90
2019-06-26T13:43:38.795Z,4.40
2019-06-26T13:48:42.232Z,4.70
2019-06-26T13:53:44.873Z,4.45
2019-06-26T13:58:47.715Z,4.90
2019-06-26T14:03:50.170Z,4.08
2019-06-26T14:08:52.767Z,4.08
2019-06-26T14:13:55.158Z,4.62
2019-06-26T14:18:57.596Z,4.25
2019-06-26T14:24:00.218Z,4.00
2019-06-26T14:29:02.904Z,4.50
2019-06-26T14:34:05.323Z,5.37
2019-06-26T14:39:08.330Z,3.65
2019-06-26T14:44:11.048Z,4.20
2019-06-26T14:49:26.101Z,5.20
2019-06-26T14:54:30.579Z,5.87
2019-06-26T14:59:34.312Z,6.67
2019-06-26T15:04:38.453Z,4.05
2019-06-26T15:09:41.787Z,3.90
2019-06-26T15:14:45.227Z,4.22
2019-06-26T15:19:49.841Z,3.40
2019-06-26T15:24:53.436Z,3.22
2019-06-26T15:29:56.255Z,3.83
2019-06-26T15:34:59.065Z,3.95
2019-06-26T15:40:01.568Z,3.58
2019-06-26T15:45:05.483Z,3.58
2019-06-26T15:50:10.686Z,3.30
2019-06-26T15:55:13.068Z,3.65
2019-06-26T16:00:15.996Z,3.85
2019-06-26T16:05:18.549Z,4.10
2019-06-26T16:10:20.985Z,4.08
2019-06-26T16:15:23.708Z,3.70
2019-06-26T16:20:27.070Z,3.90
2019-06-26T16:25:32.412Z,4.15
2019-06-26T16:30:35.317Z,3.62
2019-06-26T16:35:38.230Z,3.90
2019-06-26T16:40:41.375Z,3.65
2019-06-26T16:45:43.924Z,4.08
2019-06-26T16:50:46.444Z,4.10
2019-06-26T16:55:49.453Z,3.90
2019-06-26T17:00:54.640Z,4.25
2019-06-26T17:05:57.039Z,3.77
2019-06-26T17:11:00.156Z,4.05
2019-06-26T17:16:02.665Z,3.77
2019-06-26T17:21:05.055Z,3.52
2019-06-26T17:26:07.475Z,3.27
2019-06-26T17:31:09.946Z,3.87
2019-06-26T17:36:12.715Z,3.75
2019-06-26T17:41:15.112Z,4.67
2019-06-26T17:46:17.584Z,4.62
2019-06-26T17:51:20.108Z,4.03
2019-06-26T17:56:23.305Z,4.45
2019-06-26T18:01:25.715Z,4.37
2019-06-26T18:06:29.723Z,5.37
2019-06-26T18:11:32.712Z,5.03
2019-06-26T18:16:35.207Z,5.50
2019-06-26T18:21:37.639Z,4.37
2019-06-26T18:26:40.377Z,5.00
2019-06-26T18:31:42.865Z,5.00
2019-06-26T18:36:48.083Z,5.22
2019-06-26T18:41:51.249Z,5.20
2019-06-26T18:46:53.974Z,4.65
2019-06-26T18:51:56.383Z,5.00
2019-06-26T18:56:59.201Z,6.28
2019-06-26T19:02:03.428Z,5.10
2019-06-26T19:07:07.362Z,5.78
2019-06-26T19:12:10.109Z,5.35
2019-06-26T19:17:13.224Z,5.83
2019-06-26T19:22:15.945Z,6.53
2019-06-26T19:27:21.956Z,5.50
2019-06-26T19:32:24.944Z,6.00
2019-06-26T19:37:28.052Z,6.75
2019-06-26T19:42:31.646Z,6.75
2019-06-26T19:47:34.733Z,6.40
2019-06-26T19:52:54.284Z,6.85
2019-06-26T19:58:39.486Z,6.97
2019-06-26T20:04:03.863Z,7.62
2019-06-26T20:09:06.591Z,6.95
2019-06-26T20:14:09.118Z,6.87
2019-06-26T20:19:11.723Z,6.97
2019-06-26T20:24:14.349Z,7.83
2019-06-26T20:29:16.869Z,7.60
2019-06-26T20:34:19.301Z,7.28
2019-06-26T20:39:21.917Z,7.85
2019-06-26T20:44:24.576Z,7.33
2019-06-26T20:49:27.407Z,9.05
2019-06-26T20:54:30.347Z,8.58
2019-06-26T20:59:32.868Z,7.80
2019-06-26T21:04:35.499Z,7.47
2019-06-26T21:09:38.117Z,7.58
2019-06-26T21:14:40.791Z,8.05
2019-06-26T21:19:43.303Z,8.55
2019-06-26T21:24:45.737Z,8.45
2019-06-26T21:29:48.136Z,8.50
2019-06-26T21:34:50.552Z,10.30
2019-06-26T21:39:52.964Z,8.15
2019-06-26T21:44:55.445Z,8.63
2019-06-26T21:49:57.924Z,9.28
2019-06-26T21:55:00.337Z,8.65
2019-06-26T22:00:21.291Z,9.10
2019-06-26T22:05:41.981Z,8.83
2019-06-26T22:11:02.755Z,8.40
2019-06-26T22:16:05.403Z,8.50
2019-06-26T22:21:08.075Z,8.43
2019-06-26T22:26:13.998Z,8.75
2019-06-26T22:31:14.847Z,8.60
2019-06-26T22:36:17.255Z,9.35
2019-06-26T22:41:19.673Z,9.33
2019-06-26T22:46:22.100Z,9.63
2019-06-26T22:51:24.533Z,9.33
2019-06-26T22:56:26.979Z,9.60
2019-06-26T23:01:29.344Z,9.43
2019-06-26T23:06:31.740Z,9.30
2019-06-26T23:11:34.053Z,9.50
2019-06-26T23:16:36.620Z,9.00
2019-06-26T23:21:38.936Z,9.47
2019-06-26T23:26:41.334Z,10.33
2019-06-26T23:31:43.728Z,9.80
2019-06-26T23:36:46.448Z,8.93
2019-06-26T23:41:48.960Z,10.87
2019-06-26T23:46:51.463Z,10.00
2019-06-26T23:51:53.764Z,9.00
2019-06-26T23:56:56.468Z,10.70
